Time;durP1;ratioP1;P1;durP2;ratioP2;P2;SDS_P1;SDS_P2;PMS_P1;PMS_P2;Temp;Humidity;BMP_temperature;BMP_pressure;BME280_temperature;BME280_humidity;BME280_pressure;Samples;Min_cycle;Max_cycle;Signal;HPM_P1;HPM_P2
2023/04/26 00:00:28;;;;;;;0.00;0.00;;;;;;;;;;4992546;28;20409;-85
2023/04/26 00:02:54;;;;;;;0.00;0.00;;;;;;;;;;4975952;28;20039;-86
2023/04/26 00:05:20;;;;;;;0.00;0.00;;;;;;;;;;4992204;28;20046;-85
2023/04/26 00:07:49;;;;;;;0.00;0.00;;;;;;;;;;4992434;28;20054;-84
2023/04/26 00:10:15;;;;;;;0.00;0.00;;;;;;;;;;4976217;28;20042;-86
2023/04/26 00:12:41;;;;;;;0.00;0.00;;;;;;;;;;4992398;28;20046;-85
2023/04/26 00:15:08;;;;;;;0.00;0.00;;;;;;;;;;4976114;28;20050;-85
2023/04/26 00:17:41;;;;;;;0.00;0.00;;;;;;;;;;4992432;28;20133;-84
2023/04/26 00:20:10;;;;;;;0.00;0.00;;;;;;;;;;4975887;28;20038;-85
2023/04/26 00:22:36;;;;;;;0.00;0.00;;;;;;;;;;4976578;28;20054;-85
2023/04/26 00:25:02;;;;;;;0.00;0.00;;;;;;;;;;4976399;28;20070;-85
2023/04/26 00:27:28;;;;;;;0.00;0.00;;;;;;;;;;4992959;28;20374;-85
2023/04/26 00:29:54;;;;;;;0.00;0.00;;;;;;;;;;4976536;28;20038;-88
2023/04/26 00:32:20;;;;;;;0.00;0.00;;;;;;;;;;4992762;28;20650;-85
2023/04/26 00:34:46;;;;;;;0.00;0.00;;;;;;;;;;4992326;28;20054;-85
2023/04/26 00:37:12;;;;;;;0.00;0.00;;;;;;;;;;4975704;28;20469;-85
2023/04/26 00:39:38;;;;;;;0.00;0.00;;;;;;;;;;4992077;28;20049;-85
2023/04/26 00:42:04;;;;;;;0.00;0.00;;;;;;;;;;4975487;28;20039;-85
2023/04/26 00:44:30;;;;;;;0.00;0.00;;;;;;;;;;4975700;28;20548;-85
2023/04/26 00:46:56;;;;;;;0.00;0.00;;;;;;;;;;4991693;28;20493;-85
2023/04/26 00:49:23;;;;;;;0.00;0.00;;;;;;;;;;4991997;28;20447;-85
2023/04/26 00:51:51;;;;;;;0.00;0.00;;;;;;;;;;4992043;28;20073;-85
2023/04/26 00:54:19;;;;;;;0.00;0.00;;;;;;;;;;4991824;28;20218;-86
2023/04/26 00:56:45;;;;;;;0.00;0.00;;;;;;;;;;4991935;28;20047;-85
2023/04/26 00:59:11;;;;;;;0.00;0.00;;;;;;;;;;4975642;28;20121;-85
2023/04/26 01:01:37;;;;;;;0.00;0.00;;;;;;;;;;4991879;28;20176;-86
2023/04/26 01:04:03;;;;;;;0.00;0.00;;;;;;;;;;4975431;28;20051;-85
2023/04/26 01:06:33;;;;;;;0.00;0.00;;;;;;;;;;4991667;28;20100;-86
2023/04/26 01:09:14;;;;;;;0.00;0.00;;;;;;;;;;4975565;28;20134;-85
2023/04/26 01:11:40;;;;;;;0.00;0.00;;;;;;;;;;4991734;28;20084;-85
2023/04/26 01:14:07;;;;;;;0.00;0.00;;;;;;;;;;4975663;28;20401;-85
2023/04/26 01:16:33;;;;;;;0.00;0.00;;;;;;;;;;4995341;28;20042;-86
2023/04/26 01:19:06;;;;;;;0.00;0.00;;;;;;;;;;4995650;28;20489;-85
2023/04/26 01:21:33;;;;;;;0.00;0.00;;;;;;;;;;4995638;28;20104;-85
2023/04/26 01:23:59;;;;;;;0.35;0.20;;;;;;;;;;4995315;28;20129;-85
2023/04/26 01:26:26;;;;;;;0.00;0.00;;;;;;;;;;4995276;28;20125;-86
2023/04/26 01:28:52;;;;;;;0.00;0.00;;;;;;;;;;4995680;28;20053;-85
2023/04/26 01:31:17;;;;;;;0.00;0.00;;;;;;;;;;4995207;28;20046;-85
2023/04/26 01:33:43;;;;;;;0.00;0.00;;;;;;;;;;4995228;28;20098;-85
2023/04/26 01:36:09;;;;;;;0.00;0.00;;;;;;;;;;4995177;28;20151;-85
2023/04/26 01:38:36;;;;;;;0.00;0.00;;;;;;;;;;4979240;28;20379;-86
2023/04/26 01:41:02;;;;;;;0.00;0.00;;;;;;;;;;4995366;28;20484;-86
2023/04/26 01:43:28;;;;;;;0.00;0.00;;;;;;;;;;4995533;28;20050;-86
2023/04/26 01:45:54;;;;;;;0.00;0.00;;;;;;;;;;4994963;28;20505;-86
2023/04/26 01:48:20;;;;;;;0.00;0.00;;;;;;;;;;4995015;28;20397;-86
2023/04/26 01:50:46;;;;;;;0.00;0.00;;;;;;;;;;4994967;28;20117;-86
2023/04/26 01:53:12;;;;;;;0.00;0.00;;;;;;;;;;4979286;28;20405;-86
2023/04/26 01:55:38;;;;;;;0.00;0.00;;;;;;;;;;4995034;28;20050;-85
2023/04/26 01:58:04;;;;;;;0.00;0.00;;;;;;;;;;4994744;28;20046;-85
2023/04/26 02:00:30;;;;;;;0.00;0.00;;;;;;;;;;4994927;28;20042;-85
2023/04/26 02:02:56;;;;;;;0.00;0.00;;;;;;;;;;4994619;28;20431;-85
2023/04/26 02:05:23;;;;;;;0.00;0.00;;;;;;;;;;4978320;28;20058;-85
2023/04/26 02:07:49;;;;;;;0.00;0.00;;;;;;;;;;4978384;28;20050;-85
2023/04/26 02:10:15;;;;;;;0.00;0.00;;;;;;;;;;4994777;28;20348;-85
2023/04/26 02:12:42;;;;;;;0.00;0.00;;;;;;;;;;4978132;28;20049;-85
2023/04/26 02:15:08;;;;;;;0.00;0.00;;;;;;;;;;4978734;28;20045;-86
2023/04/26 02:17:36;;;;;;;0.00;0.00;;;;;;;;;;4977957;28;20050;-85
2023/04/26 02:20:02;;;;;;;0.00;0.00;;;;;;;;;;4978422;28;20125;-86
2023/04/26 02:22:28;;;;;;;0.00;0.00;;;;;;;;;;4994480;28;20034;-86
2023/04/26 02:24:54;;;;;;;0.00;0.00;;;;;;;;;;4994481;28;20034;-85
2023/04/26 02:27:20;;;;;;;0.00;0.00;;;;;;;;;;4994166;28;20048;-85
2023/04/26 02:29:46;;;;;;;0.00;0.00;;;;;;;;;;4994180;28;20146;-85
2023/04/26 02:32:13;;;;;;;0.00;0.00;;;;;;;;;;4977820;28;20039;-86
2023/04/26 02:34:39;;;;;;;0.00;0.00;;;;;;;;;;4994727;28;20164;-86
2023/04/26 02:37:06;;;;;;;0.00;0.00;;;;;;;;;;4994258;28;20046;-86
2023/04/26 02:39:32;;;;;;;0.00;0.00;;;;;;;;;;4994201;28;20042;-85
2023/04/26 02:41:58;;;;;;;0.00;0.00;;;;;;;;;;4993970;28;20043;-85
2023/04/26 02:44:24;;;;;;;0.00;0.00;;;;;;;;;;4994177;28;20168;-86
2023/04/26 02:46:50;;;;;;;0.00;0.00;;;;;;;;;;4993641;28;20048;-85
2023/04/26 02:49:16;;;;;;;0.00;0.00;;;;;;;;;;4978392;28;20050;-85
2023/04/26 02:51:42;;;;;;;0.00;0.00;;;;;;;;;;4993743;28;20540;-86
2023/04/26 02:54:08;;;;;;;0.00;0.00;;;;;;;;;;4977708;28;20121;-85
2023/04/26 02:56:34;;;;;;;0.00;0.00;;;;;;;;;;4993746;28;20118;-85
2023/04/26 02:59:00;;;;;;;0.00;0.00;;;;;;;;;;4993746;28;20359;-86
2023/04/26 03:01:26;;;;;;;0.00;0.00;;;;;;;;;;4993700;28;20441;-85
2023/04/26 03:03:52;;;;;;;0.00;0.00;;;;;;;;;;4993302;28;20112;-86
2023/04/26 03:06:18;;;;;;;0.00;0.00;;;;;;;;;;4993804;28;20035;-86
2023/04/26 03:08:44;;;;;;;0.00;0.00;;;;;;;;;;4993323;28;20042;-85
2023/04/26 03:11:10;;;;;;;0.00;0.00;;;;;;;;;;4993624;28;20070;-86
2023/04/26 03:13:36;;;;;;;0.00;0.00;;;;;;;;;;4993285;28;20050;-85
2023/04/26 03:16:02;;;;;;;0.00;0.00;;;;;;;;;;4993421;28;20038;-86
2023/04/26 03:18:28;;;;;;;0.00;0.00;;;;;;;;;;4993118;28;20042;-86
2023/04/26 03:20:54;;;;;;;0.00;0.00;;;;;;;;;;4993348;28;20395;-86
2023/04/26 03:23:23;;;;;;;0.00;0.00;;;;;;;;;;4993076;28;20041;-86
2023/04/26 03:25:49;;;;;;;0.00;0.00;;;;;;;;;;4977156;28;20128;-86
2023/04/26 03:28:15;;;;;;;0.00;0.00;;;;;;;;;;4992965;28;20548;-85
2023/04/26 03:30:41;;;;;;;0.00;0.00;;;;;;;;;;4993274;28;20046;-86
2023/04/26 03:33:08;;;;;;;0.00;0.00;;;;;;;;;;4992803;28;20104;-85
2023/04/26 03:35:34;;;;;;;0.00;0.00;;;;;;;;;;4993091;28;20074;-86
2023/04/26 03:38:00;;;;;;;0.00;0.00;;;;;;;;;;4992112;28;20093;-86
2023/04/26 03:40:26;;;;;;;0.00;0.00;;;;;;;;;;4960817;28;20049;-86
2023/04/26 03:42:52;;;;;;;0.00;0.00;;;;;;;;;;4992678;28;20484;-85
2023/04/26 03:45:18;;;;;;;0.10;0.08;;;;;;;;;;4993083;28;20046;-86
2023/04/26 03:47:44;;;;;;;0.00;0.00;;;;;;;;;;4976702;28;20046;-86
2023/04/26 03:50:10;;;;;;;0.00;0.00;;;;;;;;;;4993068;28;20046;-86
2023/04/26 03:52:36;;;;;;;0.00;0.00;;;;;;;;;;4992547;28;20062;-86
2023/04/26 03:55:02;;;;;;;0.00;0.00;;;;;;;;;;4976660;28;20068;-86
2023/04/26 03:57:28;;;;;;;0.00;0.00;;;;;;;;;;4992506;28;20093;-85
2023/04/26 03:59:55;;;;;;;0.00;0.00;;;;;;;;;;4992621;28;20486;-86
2023/04/26 04:02:21;;;;;;;0.00;0.00;;;;;;;;;;4992189;28;20042;-86
2023/04/26 04:04:47;;;;;;;0.00;0.00;;;;;;;;;;4992508;28;20193;-86
2023/04/26 04:07:13;;;;;;;0.00;0.00;;;;;;;;;;4992029;28;20569;-86
2023/04/26 04:09:39;;;;;;;0.00;0.00;;;;;;;;;;4992485;28;20041;-86
2023/04/26 04:12:05;;;;;;;0.00;0.00;;;;;;;;;;4992202;28;20512;-86
2023/04/26 04:14:31;;;;;;;0.00;0.00;;;;;;;;;;4975968;28;20109;-86
2023/04/26 04:16:58;;;;;;;0.00;0.00;;;;;;;;;;4992423;28;20049;-86
2023/04/26 04:19:24;;;;;;;0.00;0.00;;;;;;;;;;4992199;28;20081;-86
2023/04/26 04:21:50;;;;;;;0.00;0.00;;;;;;;;;;4992073;28;20511;-86
2023/04/26 04:24:16;;;;;;;0.00;0.00;;;;;;;;;;4975904;28;20065;-86
2023/04/26 04:26:42;;;;;;;0.00;0.00;;;;;;;;;;4976124;28;20573;-86
2023/04/26 04:29:08;;;;;;;0.00;0.00;;;;;;;;;;4992107;28;20078;-86
2023/04/26 04:31:38;;;;;;;0.00;0.00;;;;;;;;;;4992160;28;20045;-86
2023/04/26 04:34:04;;;;;;;0.00;0.00;;;;;;;;;;4991993;28;20129;-85
2023/04/26 04:36:31;;;;;;;0.00;0.00;;;;;;;;;;4992184;28;20053;-86
2023/04/26 04:38:57;;;;;;;0.00;0.00;;;;;;;;;;4991782;28;20045;-86
2023/04/26 04:41:23;;;;;;;0.00;0.00;;;;;;;;;;4992099;28;20084;-86
2023/04/26 04:43:49;;;;;;;0.00;0.00;;;;;;;;;;4975914;28;20085;-86
2023/04/26 04:46:15;;;;;;;0.00;0.00;;;;;;;;;;4992149;28;20605;-86
2023/04/26 04:48:43;;;;;;;0.00;0.00;;;;;;;;;;4991815;28;20129;-86
2023/04/26 04:51:09;;;;;;;0.00;0.00;;;;;;;;;;4992387;28;20454;-86
2023/04/26 04:53:35;;;;;;;0.00;0.00;;;;;;;;;;4991965;28;20038;-85
2023/04/26 04:56:01;;;;;;;0.00;0.00;;;;;;;;;;4992206;28;20048;-86
2023/04/26 04:58:27;;;;;;;0.00;0.00;;;;;;;;;;4991485;28;20042;-86
2023/04/26 05:00:54;;;;;;;0.00;0.00;;;;;;;;;;4975580;28;20044;-86
2023/04/26 05:03:20;;;;;;;0.00;0.00;;;;;;;;;;4991221;28;20312;-86
2023/04/26 05:05:46;;;;;;;0.00;0.00;;;;;;;;;;4991928;28;20046;-86
2023/04/26 05:08:12;;;;;;;0.00;0.00;;;;;;;;;;4975496;28;20052;-86
2023/04/26 05:10:39;;;;;;;0.00;0.00;;;;;;;;;;4991681;28;20524;-85
2023/04/26 05:13:05;;;;;;;0.00;0.00;;;;;;;;;;4992490;28;20089;-87
2023/04/26 05:15:31;;;;;;;0.00;0.00;;;;;;;;;;4991865;28;20046;-86
2023/04/26 05:17:58;;;;;;;0.00;0.00;;;;;;;;;;4975285;28;20048;-85
2023/04/26 05:20:24;;;;;;;0.00;0.00;;;;;;;;;;4991800;28;20042;-85
2023/04/26 05:22:50;;;;;;;0.00;0.00;;;;;;;;;;4991499;28;20038;-86
2023/04/26 05:25:16;;;;;;;0.00;0.00;;;;;;;;;;4975665;28;20069;-86
2023/04/26 05:27:44;;;;;;;0.00;0.00;;;;;;;;;;4992194;28;20433;-86
2023/04/26 05:30:11;;;;;;;0.00;0.00;;;;;;;;;;4975368;28;20042;-87
2023/04/26 05:32:37;;;;;;;0.00;0.00;;;;;;;;;;4991786;28;20085;-86
2023/04/26 05:35:03;;;;;;;0.00;0.00;;;;;;;;;;4991340;28;20073;-86
2023/04/26 05:37:30;;;;;;;0.00;0.00;;;;;;;;;;4975348;28;20073;-85
2023/04/26 05:39:56;;;;;;;0.00;0.00;;;;;;;;;;4991540;28;20490;-85
2023/04/26 05:42:22;;;;;;;0.00;0.00;;;;;;;;;;4991447;28;20260;-86
2023/04/26 05:44:48;;;;;;;0.00;0.00;;;;;;;;;;4991304;28;20042;-85
2023/04/26 05:47:14;;;;;;;0.00;0.00;;;;;;;;;;4991472;28;20426;-86
2023/04/26 05:49:40;;;;;;;0.00;0.00;;;;;;;;;;4975102;28;20098;-85
2023/04/26 05:52:06;;;;;;;0.00;0.00;;;;;;;;;;4991335;28;20050;-86
2023/04/26 05:54:32;;;;;;;0.00;0.00;;;;;;;;;;4974960;28;20073;-86
2023/04/26 05:56:58;;;;;;;0.00;0.00;;;;;;;;;;4992186;28;20042;-86
2023/04/26 05:59:24;;;;;;;0.00;0.00;;;;;;;;;;4992173;28;20482;-86
2023/04/26 06:01:50;;;;;;;0.00;0.00;;;;;;;;;;4978686;28;20038;-86
2023/04/26 06:04:16;;;;;;;0.00;0.00;;;;;;;;;;4995077;28;20542;-86
2023/04/26 06:06:42;;;;;;;0.00;0.00;;;;;;;;;;4995114;28;20045;-86
2023/04/26 06:09:08;;;;;;;0.00;0.00;;;;;;;;;;4978989;28;20074;-87
2023/04/26 06:11:34;;;;;;;0.00;0.00;;;;;;;;;;4978590;28;20046;-86
2023/04/26 06:14:00;;;;;;;0.00;0.00;;;;;;;;;;4994845;28;20129;-86
2023/04/26 06:16:26;;;;;;;0.00;0.00;;;;;;;;;;4994755;28;20089;-87
2023/04/26 06:18:52;;;;;;;0.00;0.00;;;;;;;;;;4994371;28;20089;-86
2023/04/26 06:21:18;;;;;;;0.00;0.00;;;;;;;;;;4994657;28;20039;-86
2023/04/26 06:23:45;;;;;;;0.00;0.00;;;;;;;;;;4977816;28;20038;-86
2023/04/26 06:26:11;;;;;;;0.00;0.00;;;;;;;;;;4978170;28;20038;-87
2023/04/26 06:28:37;;;;;;;0.00;0.00;;;;;;;;;;4977963;28;20474;-86
2023/04/26 06:31:03;;;;;;;0.00;0.00;;;;;;;;;;4994449;28;20121;-92
2023/04/26 06:33:29;;;;;;;0.00;0.00;;;;;;;;;;4978665;28;20034;-86
2023/04/26 06:35:55;;;;;;;0.00;0.00;;;;;;;;;;4978287;28;20053;-86
2023/04/26 06:38:21;;;;;;;0.00;0.00;;;;;;;;;;4977725;28;20134;-86
2023/04/26 06:40:49;;;;;;;0.00;0.00;;;;;;;;;;4993896;28;20478;-86
2023/04/26 06:43:15;;;;;;;0.00;0.00;;;;;;;;;;4993861;28;20038;-86
2023/04/26 06:45:41;;;;;;;0.00;0.00;;;;;;;;;;4977613;28;20092;-86
2023/04/26 06:48:07;;;;;;;0.00;0.00;;;;;;;;;;4994134;28;20469;-86
2023/04/26 06:50:33;;;;;;;0.00;0.00;;;;;;;;;;4993675;28;20521;-88
2023/04/26 06:52:59;;;;;;;0.00;0.00;;;;;;;;;;4993947;28;20060;-88
2023/04/26 06:55:25;;;;;;;0.00;0.00;;;;;;;;;;4977592;28;20521;-86
2023/04/26 06:57:51;;;;;;;0.00;0.00;;;;;;;;;;4994049;28;20046;-87
2023/04/26 07:00:17;;;;;;;0.00;0.00;;;;;;;;;;4978553;28;20085;-87
2023/04/26 07:02:43;;;;;;;0.00;0.00;;;;;;;;;;4977466;28;20096;-87
2023/04/26 07:05:09;;;;;;;0.00;0.00;;;;;;;;;;4993273;28;20058;-86
2023/04/26 07:07:35;;;;;;;0.00;0.00;;;;;;;;;;4993417;28;20413;-86
2023/04/26 07:10:01;;;;;;;0.00;0.00;;;;;;;;;;4993179;28;20049;-86
2023/04/26 07:12:27;;;;;;;0.00;0.00;;;;;;;;;;4976469;28;20065;-86
2023/04/26 07:14:53;;;;;;;0.00;0.00;;;;;;;;;;4976875;28;20096;-86
2023/04/26 07:17:21;;;;;;;0.00;0.00;;;;;;;;;;4993426;28;20133;-87
2023/04/26 07:19:47;;;;;;;0.00;0.00;;;;;;;;;;4976866;28;20042;-87
2023/04/26 07:22:12;;;;;;;0.00;0.00;;;;;;;;;;4977101;28;20042;-86
2023/04/26 07:24:38;;;;;;;0.00;0.00;;;;;;;;;;4992919;28;20061;-86
2023/04/26 07:27:05;;;;;;;0.00;0.00;;;;;;;;;;4993407;28;20081;-85
2023/04/26 07:29:31;;;;;;;0.00;0.00;;;;;;;;;;4992967;28;20049;-87
2023/04/26 07:31:57;;;;;;;0.00;0.00;;;;;;;;;;4993287;28;20133;-86
2023/04/26 07:34:23;;;;;;;0.00;0.00;;;;;;;;;;4992990;28;20078;-86
2023/04/26 07:36:52;;;;;;;0.00;0.00;;;;;;;;;;4976988;28;20545;-91
2023/04/26 07:39:18;;;;;;;0.00;0.00;;;;;;;;;;4977298;28;20473;-88
2023/04/26 07:41:44;;;;;;;0.00;0.00;;;;;;;;;;4992993;28;20043;-88
2023/04/26 07:44:10;;;;;;;0.00;0.00;;;;;;;;;;4977068;28;20038;-88
2023/04/26 07:46:36;;;;;;;0.00;0.00;;;;;;;;;;4993400;28;20194;-89
2023/04/26 07:49:02;;;;;;;0.05;0.00;;;;;;;;;;4976890;28;20409;-89
2023/04/26 07:51:28;;;;;;;0.00;0.00;;;;;;;;;;4977043;28;20046;-90
2023/04/26 07:53:54;;;;;;;0.00;0.00;;;;;;;;;;4976939;28;20053;-89
2023/04/26 07:56:22;;;;;;;0.20;0.10;;;;;;;;;;4976636;28;20046;-88
2023/04/26 07:58:49;;;;;;;0.00;0.00;;;;;;;;;;4992929;28;20474;-89
2023/04/26 08:01:15;;;;;;;0.00;0.00;;;;;;;;;;4992674;28;20042;-89
2023/04/26 08:03:41;;;;;;;0.00;0.00;;;;;;;;;;4992525;28;20148;-90
2023/04/26 08:06:07;;;;;;;0.00;0.00;;;;;;;;;;4992766;28;20046;-89
2023/04/26 08:08:39;;;;;;;0.00;0.00;;;;;;;;;;4976502;28;20145;-90
2023/04/26 08:11:07;;;;;;;0.00;0.00;;;;;;;;;;4976791;28;20149;-92
2023/04/26 08:13:33;;;;;;;0.00;0.00;;;;;;;;;;4993765;28;20129;-88
2023/04/26 08:15:59;;;;;;;0.00;0.00;;;;;;;;;;4992401;28;20046;-88
2023/04/26 08:18:25;;;;;;;0.00;0.00;;;;;;;;;;4975974;28;20050;-88
2023/04/26 08:20:54;;;;;;;0.00;0.00;;;;;;;;;;4992016;28;20395;-88
2023/04/26 08:23:21;;;;;;;0.00;0.00;;;;;;;;;;4976062;28;20129;-89
2023/04/26 08:25:48;;;;;;;0.00;0.00;;;;;;;;;;4976438;28;20089;-87
2023/04/26 08:28:14;;;;;;;0.00;0.00;;;;;;;;;;4992401;28;20080;-89
2023/04/26 08:30:40;;;;;;;0.00;0.00;;;;;;;;;;4992360;28;20050;-89
2023/04/26 08:33:06;;;;;;;0.00;0.00;;;;;;;;;;4992674;28;20082;-89
2023/04/26 08:35:32;;;;;;;0.00;0.00;;;;;;;;;;4992400;28;20125;-89
2023/04/26 08:37:58;;;;;;;0.00;0.00;;;;;;;;;;4975884;28;20138;-89
2023/04/26 08:40:25;;;;;;;0.00;0.00;;;;;;;;;;4991963;28;20040;-88
2023/04/26 08:42:52;;;;;;;0.00;0.00;;;;;;;;;;4991958;28;20049;-88
2023/04/26 08:45:18;;;;;;;0.00;0.00;;;;;;;;;;4975583;28;20042;-88
2023/04/26 08:47:48;;;;;;;0.00;0.00;;;;;;;;;;4992677;28;20426;-88
2023/04/26 08:50:15;;;;;;;0.00;0.00;;;;;;;;;;4991904;28;20398;-87
2023/04/26 08:52:42;;;;;;;0.00;0.00;;;;;;;;;;4992060;28;20046;-89
2023/04/26 08:55:09;;;;;;;0.00;0.00;;;;;;;;;;4975561;28;20050;-89
2023/04/26 08:57:35;;;;;;;0.00;0.00;;;;;;;;;;4991582;28;20467;-88
2023/04/26 09:00:04;;;;;;;0.00;0.00;;;;;;;;;;4975399;28;20060;-88
2023/04/26 09:02:30;;;;;;;0.00;0.00;;;;;;;;;;4975662;28;20097;-88
2023/04/26 09:04:56;;;;;;;0.00;0.00;;;;;;;;;;4991727;28;20245;-87
2023/04/26 09:07:33;;;;;;;0.00;0.00;;;;;;;;;;4991643;28;20050;-89
2023/04/26 09:09:59;;;;;;;0.00;0.00;;;;;;;;;;4975945;28;20072;-89
2023/04/26 09:12:26;;;;;;;0.00;0.00;;;;;;;;;;4991400;28;20050;-87
2023/04/26 09:14:52;;;;;;;0.00;0.00;;;;;;;;;;4975538;28;20038;-87
2023/04/26 09:17:35;;;;;;;0.00;0.00;;;;;;;;;;4975175;28;20371;-87
2023/04/26 09:20:05;;;;;;;0.00;0.00;;;;;;;;;;4991452;28;20034;-87
2023/04/26 09:22:32;;;;;;;0.00;0.00;;;;;;;;;;4975215;28;20050;-88
2023/04/26 09:24:58;;;;;;;0.00;0.00;;;;;;;;;;4991660;28;20039;-89
2023/04/26 09:27:33;;;;;;;0.00;0.00;;;;;;;;;;4975560;28;20046;-92
2023/04/26 09:30:04;;;;;;;0.00;0.00;;;;;;;;;;4992359;28;20511;-89
2023/04/26 09:32:50;;;;;;;0.00;0.00;;;;;;;;;;4992316;28;20047;-87
2023/04/26 09:35:28;;;;;;;0.00;0.00;;;;;;;;;;4994272;28;20077;-89
2023/04/26 09:38:00;;;;;;;0.00;0.00;;;;;;;;;;4980652;28;20153;-90
2023/04/26 09:40:29;;;;;;;0.00;0.00;;;;;;;;;;4979224;28;20428;-88
2023/04/26 09:43:03;;;;;;;0.00;0.00;;;;;;;;;;4995361;28;20061;-88
2023/04/26 09:45:30;;;;;;;0.00;0.00;;;;;;;;;;4994947;28;20061;-90
2023/04/26 09:48:12;;;;;;;0.00;0.00;;;;;;;;;;4979732;28;20485;-89
2023/04/26 09:50:38;;;;;;;0.00;0.00;;;;;;;;;;4995776;28;20386;-88
2023/04/26 09:53:04;;;;;;;0.00;0.00;;;;;;;;;;4994995;28;20038;-90
2023/04/26 09:55:30;;;;;;;0.00;0.00;;;;;;;;;;4995313;28;20552;-88
2023/04/26 09:57:59;;;;;;;0.00;0.00;;;;;;;;;;4994814;28;20074;-90
2023/04/26 10:00:25;;;;;;;0.00;0.00;;;;;;;;;;4994815;28;20061;-89
2023/04/26 10:02:52;;;;;;;0.00;0.00;;;;;;;;;;4994785;28;20039;-89
2023/04/26 10:05:18;;;;;;;0.00;0.00;;;;;;;;;;4994871;28;20046;-89
2023/04/26 10:07:45;;;;;;;0.00;0.00;;;;;;;;;;4995159;28;20072;-90
2023/04/26 10:10:11;;;;;;;0.00;0.00;;;;;;;;;;4978843;28;20470;-89
2023/04/26 10:12:43;;;;;;;0.00;0.00;;;;;;;;;;4994503;28;20227;-88
2023/04/26 10:15:12;;;;;;;0.00;0.00;;;;;;;;;;4994951;28;20046;-88
2023/04/26 10:17:38;;;;;;;0.00;0.00;;;;;;;;;;4978012;28;20046;-88
2023/04/26 10:20:08;;;;;;;0.00;0.00;;;;;;;;;;4994508;28;20042;-90
2023/04/26 10:22:37;;;;;;;0.00;0.00;;;;;;;;;;4978009;28;20058;-87
2023/04/26 10:25:03;;;;;;;0.00;0.00;;;;;;;;;;4994332;28;20038;-87
2023/04/26 10:27:45;;;;;;;0.00;0.00;;;;;;;;;;4994024;28;20478;-88
2023/04/26 10:30:12;;;;;;;0.00;0.00;;;;;;;;;;4978290;28;20049;-89
2023/04/26 10:32:57;;;;;;;0.00;0.00;;;;;;;;;;4994641;28;20466;-89
2023/04/26 10:35:27;;;;;;;0.00;0.00;;;;;;;;;;4994411;28;20478;-89
2023/04/26 10:37:59;;;;;;;0.00;0.00;;;;;;;;;;4977524;28;20058;-88
2023/04/26 10:40:26;;;;;;;0.00;0.00;;;;;;;;;;4994224;28;20125;-88
2023/04/26 10:43:18;;;;;;;0.00;0.00;;;;;;;;;;4993959;28;20050;-88
2023/04/26 10:45:45;;;;;;;0.00;0.00;;;;;;;;;;4994569;28;20042;-89
2023/04/26 10:48:19;;;;;;;0.00;0.00;;;;;;;;;;4993707;28;20506;-89
2023/04/26 10:50:57;;;;;;;0.00;0.00;;;;;;;;;;4978191;28;20121;-88
2023/04/26 10:53:23;;;;;;;0.00;0.00;;;;;;;;;;4994097;28;20077;-88
2023/04/26 10:55:49;;;;;;;0.00;0.00;;;;;;;;;;4977818;28;20561;-88
2023/04/26 10:58:34;;;;;;;0.00;0.00;;;;;;;;;;4993723;28;20142;-87
2023/04/26 11:01:04;;;;;;;0.00;0.00;;;;;;;;;;4994049;28;20046;-88
2023/04/26 11:03:30;;;;;;;0.00;0.00;;;;;;;;;;4993543;28;20088;-89
2023/04/26 11:05:57;;;;;;;0.00;0.00;;;;;;;;;;4994564;28;20031;-88
2023/04/26 11:08:26;;;;;;;0.00;0.00;;;;;;;;;;4977413;28;20133;-89
2023/04/26 11:11:05;;;;;;;0.00;0.00;;;;;;;;;;4993935;28;20046;-89
2023/04/26 11:13:32;;;;;;;0.00;0.00;;;;;;;;;;4994023;28;20157;-88
2023/04/26 11:16:01;;;;;;;0.00;0.00;;;;;;;;;;4994179;28;20041;-88
2023/04/26 11:18:28;;;;;;;0.00;0.00;;;;;;;;;;4993542;28;20049;-89
2023/04/26 11:20:54;;;;;;;0.00;0.00;;;;;;;;;;4994318;28;20049;-88
2023/04/26 11:23:20;;;;;;;0.00;0.00;;;;;;;;;;4978285;28;20038;-88
2023/04/26 11:25:46;;;;;;;0.00;0.00;;;;;;;;;;4995777;28;20039;-89
2023/04/26 11:28:12;;;;;;;0.00;0.00;;;;;;;;;;4977881;28;20089;-88
2023/04/26 11:30:39;;;;;;;0.00;0.00;;;;;;;;;;4993489;28;20039;-91
2023/04/26 11:33:05;;;;;;;0.00;0.00;;;;;;;;;;4978777;28;20046;-88
2023/04/26 11:35:35;;;;;;;0.00;0.00;;;;;;;;;;4993427;28;20038;-89
2023/04/26 11:38:03;;;;;;;0.00;0.00;;;;;;;;;;4976865;28;20497;-89
2023/04/26 11:40:30;;;;;;;0.00;0.00;;;;;;;;;;4993554;28;20046;-88
2023/04/26 11:43:06;;;;;;;0.00;0.00;;;;;;;;;;4993129;28;20042;-87
2023/04/26 11:45:34;;;;;;;0.00;0.00;;;;;;;;;;4993049;28;20385;-87
2023/04/26 11:48:01;;;;;;;0.00;0.00;;;;;;;;;;4992715;28;20552;-86
2023/04/26 11:50:27;;;;;;;0.00;0.00;;;;;;;;;;4992974;28;20046;-87
2023/04/26 11:52:54;;;;;;;0.00;0.00;;;;;;;;;;4992539;28;20049;-88
2023/04/26 11:55:24;;;;;;;0.00;0.00;;;;;;;;;;4976725;28;20132;-87
2023/04/26 11:57:51;;;;;;;0.00;0.00;;;;;;;;;;4992688;28;20054;-88
2023/04/26 12:00:17;;;;;;;0.20;0.05;;;;;;;;;;4976889;28;20145;-87
2023/04/26 12:02:47;;;;;;;0.00;0.00;;;;;;;;;;4975811;28;20069;-86
2023/04/26 12:05:22;;;;;;;0.00;0.00;;;;;;;;;;4976475;28;20090;-87
2023/04/26 12:07:52;;;;;;;0.00;0.00;;;;;;;;;;4976291;28;20152;-88
2023/04/26 12:10:19;;;;;;;0.00;0.00;;;;;;;;;;4976253;28;20089;-86
2023/04/26 12:12:49;;;;;;;0.00;0.00;;;;;;;;;;4992275;28;20038;-88
2023/04/26 12:15:16;;;;;;;0.00;0.00;;;;;;;;;;4976987;28;20061;-87
2023/04/26 12:17:51;;;;;;;0.00;0.00;;;;;;;;;;4975940;28;20117;-87
2023/04/26 12:20:17;;;;;;;0.00;0.00;;;;;;;;;;4992455;28;20069;-87
2023/04/26 12:22:56;;;;;;;0.00;0.00;;;;;;;;;;4992416;28;20049;-88
2023/04/26 12:25:22;;;;;;;0.00;0.00;;;;;;;;;;4992437;28;20120;-87
2023/04/26 12:27:48;;;;;;;0.00;0.00;;;;;;;;;;4992066;28;20038;-87
2023/04/26 12:30:15;;;;;;;0.00;0.00;;;;;;;;;;4992230;28;20465;-88
2023/04/26 12:32:41;;;;;;;0.00;0.00;;;;;;;;;;4991957;28;20049;-87
2023/04/26 12:35:07;;;;;;;0.00;0.00;;;;;;;;;;4992542;28;20046;-88
2023/04/26 12:37:33;;;;;;;0.00;0.00;;;;;;;;;;4975576;28;20050;-88
2023/04/26 12:39:59;;;;;;;0.00;0.00;;;;;;;;;;4992335;28;20117;-87
2023/04/26 12:42:25;;;;;;;0.00;0.00;;;;;;;;;;4975759;28;20042;-88
2023/04/26 12:44:51;;;;;;;0.00;0.00;;;;;;;;;;4976339;28;20038;-88
2023/04/26 12:47:17;;;;;;;0.00;0.00;;;;;;;;;;4991733;28;20544;-87
2023/04/26 12:49:43;;;;;;;0.00;0.00;;;;;;;;;;4975789;28;20046;-88
2023/04/26 12:52:09;;;;;;;0.00;0.00;;;;;;;;;;4975771;28;20044;-88
2023/04/26 12:54:36;;;;;;;0.00;0.00;;;;;;;;;;4975866;28;20038;-88
2023/04/26 12:57:02;;;;;;;0.00;0.00;;;;;;;;;;4991768;28;20151;-89
2023/04/26 12:59:28;;;;;;;0.00;0.00;;;;;;;;;;4991996;28;20170;-87
2023/04/26 13:01:54;;;;;;;0.00;0.00;;;;;;;;;;4992023;28;20073;-88
2023/04/26 13:04:20;;;;;;;0.00;0.00;;;;;;;;;;4991382;28;20490;-88
2023/04/26 13:06:46;;;;;;;0.00;0.00;;;;;;;;;;4991889;28;20046;-88
2023/04/26 13:09:13;;;;;;;0.00;0.00;;;;;;;;;;4992097;28;20057;-87
2023/04/26 13:11:39;;;;;;;0.00;0.00;;;;;;;;;;4996735;28;20057;-88
2023/04/26 13:14:06;;;;;;;0.00;0.00;;;;;;;;;;5014165;28;20136;-89
2023/04/26 13:16:35;;;;;;;0.00;0.00;;;;;;;;;;4996056;28;20050;-87
2023/04/26 13:19:01;;;;;;;0.00;0.00;;;;;;;;;;4980945;28;20050;-87
2023/04/26 13:21:27;;;;;;;0.00;0.00;;;;;;;;;;4979737;28;20046;-87
2023/04/26 13:23:53;;;;;;;0.00;0.00;;;;;;;;;;4979136;28;20172;-88
2023/04/26 13:26:19;;;;;;;0.00;0.00;;;;;;;;;;4979893;28;20125;-88
2023/04/26 13:28:46;;;;;;;0.00;0.00;;;;;;;;;;4995616;28;20052;-88
2023/04/26 13:31:12;;;;;;;0.00;0.00;;;;;;;;;;5009447;28;20435;-88
2023/04/26 13:33:38;;;;;;;0.00;0.00;;;;;;;;;;4999202;28;20038;-89
2023/04/26 13:36:05;;;;;;;0.00;0.00;;;;;;;;;;4982665;28;20053;-88
2023/04/26 13:38:31;;;;;;;0.00;0.00;;;;;;;;;;4982132;28;20470;-88
2023/04/26 13:40:57;;;;;;;0.00;0.00;;;;;;;;;;4981374;28;20042;-87
2023/04/26 13:43:23;;;;;;;0.00;0.00;;;;;;;;;;4981614;28;20046;-87
2023/04/26 13:45:50;;;;;;;0.00;0.00;;;;;;;;;;4997273;28;20446;-88
2023/04/26 13:48:16;;;;;;;0.00;0.00;;;;;;;;;;4998420;28;20042;-88
2023/04/26 13:50:42;;;;;;;0.00;0.00;;;;;;;;;;4983464;28;20069;-88
2023/04/26 13:53:08;;;;;;;0.00;0.00;;;;;;;;;;4981420;28;20462;-88
2023/04/26 13:55:34;;;;;;;0.00;0.00;;;;;;;;;;4982213;28;20073;-88
2023/04/26 13:58:00;;;;;;;0.00;0.00;;;;;;;;;;4996108;28;20152;-89
2023/04/26 14:00:26;;;;;;;0.00;0.00;;;;;;;;;;4997801;28;20045;-89
2023/04/26 14:02:52;;;;;;;0.00;0.00;;;;;;;;;;4981376;28;20057;-88
2023/04/26 14:05:18;;;;;;;0.00;0.00;;;;;;;;;;4997810;28;20069;-89
2023/04/26 14:07:44;;;;;;;0.00;0.00;;;;;;;;;;4997879;28;20080;-89
2023/04/26 14:10:10;;;;;;;0.00;0.00;;;;;;;;;;4998615;28;20050;-89
2023/04/26 14:12:36;;;;;;;0.00;0.00;;;;;;;;;;4982242;28;20285;-89
2023/04/26 14:15:04;;;;;;;0.00;0.00;;;;;;;;;;4998033;28;20077;-89
2023/04/26 14:17:31;;;;;;;0.00;0.00;;;;;;;;;;4981968;28;20046;-89
2023/04/26 14:19:57;;;;;;;0.00;0.00;;;;;;;;;;4981514;28;20138;-88
2023/04/26 14:22:24;;;;;;;0.00;0.00;;;;;;;;;;4997230;28;20525;-89
2023/04/26 14:24:50;;;;;;;0.00;0.00;;;;;;;;;;4998390;28;20049;-88
2023/04/26 14:27:16;;;;;;;0.00;0.00;;;;;;;;;;4985073;28;20043;-88
2023/04/26 14:29:42;;;;;;;0.00;0.00;;;;;;;;;;5007007;28;20057;-91
2023/04/26 14:32:08;;;;;;;0.00;0.00;;;;;;;;;;5000342;28;20081;-89
2023/04/26 14:34:38;;;;;;;0.00;0.00;;;;;;;;;;4998552;28;20540;-88
2023/04/26 14:37:05;;;;;;;0.00;0.00;;;;;;;;;;4999641;28;20047;-89
2023/04/26 14:39:31;;;;;;;0.00;0.00;;;;;;;;;;4998142;28;20046;-89
2023/04/26 14:41:57;;;;;;;0.00;0.00;;;;;;;;;;4980531;28;20049;-88